sensor_id;sensor_type;location;lat;lon;timestamp;pressure;altitude;pressure_sealevel;temperature;humidity
43267;BME280;67779;54.074;18.770;2023-02-12T00:02:21;102425.22;;;1.48;81.28
43267;BME280;67779;54.074;18.770;2023-02-12T00:09:05;102436.56;;;1.50;81.11
43267;BME280;67779;54.074;18.770;2023-02-12T00:15:47;102452.19;;;1.50;81.22
43267;BME280;67779;54.074;18.770;2023-02-12T00:22:30;102470.31;;;1.48;79.84
43267;BME280;67779;54.074;18.770;2023-02-12T00:29:12;102475.50;;;1.48;79.32
43267;BME280;67779;54.074;18.770;2023-02-12T00:35:56;102478.09;;;1.48;78.86
43267;BME280;67779;54.074;18.770;2023-02-12T00:42:38;102487.63;;;1.48;77.95
43267;BME280;67779;54.074;18.770;2023-02-12T00:49:21;102493.63;;;1.47;76.56
43267;BME280;67779;54.074;18.770;2023-02-12T00:56:04;102496.19;;;1.45;74.89
43267;BME280;67779;54.074;18.770;2023-02-12T01:02:47;102510.06;;;1.46;74.20
43267;BME280;67779;54.074;18.770;2023-02-12T01:09:29;102508.31;;;1.45;74.01
43267;BME280;67779;54.074;18.770;2023-02-12T01:16:30;102531.72;;;1.45;73.62
43267;BME280;67779;54.074;18.770;2023-02-12T01:23:15;102544.59;;;1.42;74.25
43267;BME280;67779;54.074;18.770;2023-02-12T01:29:57;102545.22;;;1.36;74.69
43267;BME280;67779;54.074;18.770;2023-02-12T01:36:39;102557.03;;;1.29;74.73
43267;BME280;67779;54.074;18.770;2023-02-12T01:43:22;102565.53;;;1.25;73.65
43267;BME280;67779;54.074;18.770;2023-02-12T01:50:08;102569.69;;;1.22;73.73
43267;BME280;67779;54.074;18.770;2023-02-12T01:56:52;102575.59;;;1.18;73.95
43267;BME280;67779;54.074;18.770;2023-02-12T02:03:37;102572.44;;;1.05;74.32
43267;BME280;67779;54.074;18.770;2023-02-12T02:10:20;102585.72;;;0.94;74.10
43267;BME280;67779;54.074;18.770;2023-02-12T02:24:39;102591.13;;;0.61;74.70
43267;BME280;67779;54.074;18.770;2023-02-12T02:38:33;102606.53;;;0.22;75.78
43267;BME280;67779;54.074;18.770;2023-02-12T02:45:27;102607.94;;;-0.03;76.10
43267;BME280;67779;54.074;18.770;2023-02-12T02:52:19;102617.13;;;-0.26;77.13
43267;BME280;67779;54.074;18.770;2023-02-12T02:59:10;102610.19;;;-0.43;78.32
43267;BME280;67779;54.074;18.770;2023-02-12T03:06:06;102613.59;;;-0.60;79.21
43267;BME280;67779;54.074;18.770;2023-02-12T03:19:44;102643.06;;;-0.91;81.42
43267;BME280;67779;54.074;18.770;2023-02-12T03:26:51;102651.00;;;-1.03;82.94
43267;BME280;67779;54.074;18.770;2023-02-12T03:34:04;102661.03;;;-1.09;84.33
43267;BME280;67779;54.074;18.770;2023-02-12T03:40:57;102677.84;;;-1.17;84.87
43267;BME280;67779;54.074;18.770;2023-02-12T03:47:54;102692.06;;;-1.25;86.23
43267;BME280;67779;54.074;18.770;2023-02-12T03:54:41;102693.69;;;-1.27;87.05
43267;BME280;67779;54.074;18.770;2023-02-12T04:01:26;102695.91;;;-1.33;87.90
43267;BME280;67779;54.074;18.770;2023-02-12T04:08:10;102704.16;;;-1.41;88.51
43267;BME280;67779;54.074;18.770;2023-02-12T04:15:29;102709.59;;;-1.51;89.13
43267;BME280;67779;54.074;18.770;2023-02-12T04:36:25;102718.16;;;-1.67;90.50
43267;BME280;67779;54.074;18.770;2023-02-12T04:43:10;102734.91;;;-1.75;90.25
43267;BME280;67779;54.074;18.770;2023-02-12T04:49:52;102730.44;;;-1.77;91.59
43267;BME280;67779;54.074;18.770;2023-02-12T04:56:35;102739.84;;;-1.80;91.56
43267;BME280;67779;54.074;18.770;2023-02-12T05:03:20;102744.81;;;-1.83;91.55
43267;BME280;67779;54.074;18.770;2023-02-12T05:10:02;102747.03;;;-1.89;91.68
43267;BME280;67779;54.074;18.770;2023-02-12T05:16:48;102737.31;;;-1.93;91.74
43267;BME280;67779;54.074;18.770;2023-02-12T05:23:34;102744.44;;;-1.89;92.45
43267;BME280;67779;54.074;18.770;2023-02-12T05:30:17;102757.38;;;-1.89;92.48
43267;BME280;67779;54.074;18.770;2023-02-12T05:37:00;102752.00;;;-1.92;92.21
43267;BME280;67779;54.074;18.770;2023-02-12T05:43:43;102754.53;;;-1.93;92.44
43267;BME280;67779;54.074;18.770;2023-02-12T05:50:25;102764.69;;;-1.96;92.22
43267;BME280;67779;54.074;18.770;2023-02-12T05:57:13;102771.47;;;-1.98;92.96
43267;BME280;67779;54.074;18.770;2023-02-12T06:03:58;102777.81;;;-1.93;93.02
43267;BME280;67779;54.074;18.770;2023-02-12T06:10:41;102787.88;;;-1.83;93.79
43267;BME280;67779;54.074;18.770;2023-02-12T06:17:23;102803.38;;;-1.70;94.41
43267;BME280;67779;54.074;18.770;2023-02-12T06:24:06;102789.19;;;-1.62;94.14
43267;BME280;67779;54.074;18.770;2023-02-12T06:30:48;102792.53;;;-1.49;94.19
43267;BME280;67779;54.074;18.770;2023-02-12T06:37:34;102813.13;;;-1.36;93.70
43267;BME280;67779;54.074;18.770;2023-02-12T06:44:18;102826.13;;;-1.21;92.94
43267;BME280;67779;54.074;18.770;2023-02-12T06:51:19;102842.47;;;-1.07;92.12
43267;BME280;67779;54.074;18.770;2023-02-12T06:58:04;102844.44;;;-0.88;91.48
43267;BME280;67779;54.074;18.770;2023-02-12T07:04:47;102841.88;;;-0.72;89.94
43267;BME280;67779;54.074;18.770;2023-02-12T07:11:33;102847.84;;;-0.58;89.16
43267;BME280;67779;54.074;18.770;2023-02-12T07:18:19;102857.41;;;-0.42;87.68
43267;BME280;67779;54.074;18.770;2023-02-12T07:25:01;102844.66;;;-0.23;86.60
43267;BME280;67779;54.074;18.770;2023-02-12T07:31:44;102832.19;;;0.03;86.54
43267;BME280;67779;54.074;18.770;2023-02-12T07:38:28;102838.09;;;0.31;84.97
43267;BME280;67779;54.074;18.770;2023-02-12T07:45:10;102838.63;;;0.58;83.68
43267;BME280;67779;54.074;18.770;2023-02-12T07:51:55;102837.38;;;0.84;81.91
43267;BME280;67779;54.074;18.770;2023-02-12T07:58:39;102832.28;;;1.04;80.34
43267;BME280;67779;54.074;18.770;2023-02-12T08:05:22;102828.75;;;1.20;79.66
43267;BME280;67779;54.074;18.770;2023-02-12T08:12:04;102829.31;;;1.32;78.06
43267;BME280;67779;54.074;18.770;2023-02-12T08:18:47;102841.97;;;1.42;77.05
43267;BME280;67779;54.074;18.770;2023-02-12T08:25:30;102839.66;;;1.48;76.78
43267;BME280;67779;54.074;18.770;2023-02-12T08:32:12;102848.56;;;1.53;76.44
43267;BME280;67779;54.074;18.770;2023-02-12T08:39:01;102848.81;;;1.58;76.23
43267;BME280;67779;54.074;18.770;2023-02-12T08:45:45;102848.13;;;1.62;75.35
43267;BME280;67779;54.074;18.770;2023-02-12T08:52:27;102858.06;;;1.71;75.73
43267;BME280;67779;54.074;18.770;2023-02-12T08:59:11;102844.09;;;1.87;75.46
43267;BME280;67779;54.074;18.770;2023-02-12T09:05:54;102851.69;;;2.01;74.41
43267;BME280;67779;54.074;18.770;2023-02-12T09:12:37;102843.50;;;2.12;74.34
43267;BME280;67779;54.074;18.770;2023-02-12T09:19:20;102840.63;;;2.25;73.74
43267;BME280;67779;54.074;18.770;2023-02-12T09:26:08;102833.97;;;2.32;73.49
43267;BME280;67779;54.074;18.770;2023-02-12T09:32:51;102833.31;;;2.36;72.00
43267;BME280;67779;54.074;18.770;2023-02-12T09:39:34;102831.63;;;2.38;71.96
43267;BME280;67779;54.074;18.770;2023-02-12T09:46:31;102833.34;;;2.37;71.76
43267;BME280;67779;54.074;18.770;2023-02-12T09:53:18;102816.34;;;2.45;71.47
43267;BME280;67779;54.074;18.770;2023-02-12T10:28:40;102791.97;;;3.05;70.07
43267;BME280;67779;54.074;18.770;2023-02-12T10:35:24;102788.75;;;3.12;70.09
43267;BME280;67779;54.074;18.770;2023-02-12T10:42:21;102790.69;;;3.16;70.28
43267;BME280;67779;54.074;18.770;2023-02-12T10:49:14;102779.41;;;3.17;70.57
43267;BME280;67779;54.074;18.770;2023-02-12T10:56:22;102769.31;;;3.26;71.14
43267;BME280;67779;54.074;18.770;2023-02-12T11:09:55;102768.31;;;3.44;71.79
43267;BME280;67779;54.074;18.770;2023-02-12T11:17:09;102758.91;;;3.49;71.76
43267;BME280;67779;54.074;18.770;2023-02-12T11:23:48;102746.94;;;3.54;71.88
43267;BME280;67779;54.074;18.770;2023-02-12T11:30:31;102740.25;;;3.61;71.68
43267;BME280;67779;54.074;18.770;2023-02-12T11:37:18;102745.69;;;3.67;71.72
43267;BME280;67779;54.074;18.770;2023-02-12T11:51:08;102719.53;;;3.89;72.55
43267;BME280;67779;54.074;18.770;2023-02-12T12:05:02;102703.94;;;3.91;73.32
43267;BME280;67779;54.074;18.770;2023-02-12T12:12:55;102719.13;;;3.78;73.48
43267;BME280;67779;54.074;18.770;2023-02-12T12:26:52;102749.50;;;3.30;75.23
43267;BME280;67779;54.074;18.770;2023-02-12T12:33:59;102737.41;;;2.88;77.29
43267;BME280;67779;54.074;18.770;2023-02-12T13:02:42;102702.66;;;2.27;84.81
43267;BME280;67779;54.074;18.770;2023-02-12T13:16:52;102682.88;;;2.30;86.87
43267;BME280;67779;54.074;18.770;2023-02-12T13:24:24;102657.06;;;2.36;88.29
43267;BME280;67779;54.074;18.770;2023-02-12T13:31:14;102658.97;;;2.40;89.09
43267;BME280;67779;54.074;18.770;2023-02-12T13:38:21;102669.63;;;2.46;90.05
43267;BME280;67779;54.074;18.770;2023-02-12T14:06:20;102692.19;;;2.46;93.31
43267;BME280;67779;54.074;18.770;2023-02-12T14:13:22;102679.28;;;2.49;94.49
43267;BME280;67779;54.074;18.770;2023-02-12T14:20:31;102685.47;;;2.51;95.38
43267;BME280;67779;54.074;18.770;2023-02-12T14:40:51;102680.44;;;2.56;97.53
43267;BME280;67779;54.074;18.770;2023-02-12T14:54:33;102682.41;;;2.61;98.80
43267;BME280;67779;54.074;18.770;2023-02-12T15:01:17;102688.75;;;2.68;99.20
43267;BME280;67779;54.074;18.770;2023-02-12T15:15:32;102665.06;;;2.83;100.00
43267;BME280;67779;54.074;18.770;2023-02-12T15:22:31;102668.78;;;2.89;100.00
43267;BME280;67779;54.074;18.770;2023-02-12T15:29:33;102659.34;;;2.93;100.00
43267;BME280;67779;54.074;18.770;2023-02-12T15:36:28;102655.16;;;2.97;100.00
43267;BME280;67779;54.074;18.770;2023-02-12T15:43:17;102641.47;;;3.02;100.00
43267;BME280;67779;54.074;18.770;2023-02-12T15:50:00;102652.03;;;3.05;100.00
43267;BME280;67779;54.074;18.770;2023-02-12T15:56:43;102643.34;;;3.06;100.00
43267;BME280;67779;54.074;18.770;2023-02-12T16:03:32;102641.75;;;3.10;100.00
43267;BME280;67779;54.074;18.770;2023-02-12T16:10:17;102627.03;;;3.10;100.00
43267;BME280;67779;54.074;18.770;2023-02-12T16:17:00;102611.50;;;3.13;100.00
43267;BME280;67779;54.074;18.770;2023-02-12T16:23:49;102606.28;;;3.13;100.00
43267;BME280;67779;54.074;18.770;2023-02-12T16:30:35;102594.03;;;3.12;100.00
43267;BME280;67779;54.074;18.770;2023-02-12T16:44:25;102625.34;;;3.12;100.00
43267;BME280;67779;54.074;18.770;2023-02-12T16:58:07;102627.19;;;3.15;100.00
43267;BME280;67779;54.074;18.770;2023-02-12T17:04:50;102627.25;;;3.17;100.00
43267;BME280;67779;54.074;18.770;2023-02-12T17:11:33;102622.94;;;3.19;100.00
43267;BME280;67779;54.074;18.770;2023-02-12T17:18:15;102625.63;;;3.20;100.00
43267;BME280;67779;54.074;18.770;2023-02-12T17:24:59;102617.13;;;3.24;100.00
43267;BME280;67779;54.074;18.770;2023-02-12T17:31:42;102613.69;;;3.27;100.00
43267;BME280;67779;54.074;18.770;2023-02-12T17:38:33;102608.66;;;3.31;100.00
43267;BME280;67779;54.074;18.770;2023-02-12T17:45:17;102608.84;;;3.36;100.00
43267;BME280;67779;54.074;18.770;2023-02-12T17:52:01;102596.91;;;3.43;100.00
43267;BME280;67779;54.074;18.770;2023-02-12T17:58:58;102588.41;;;3.48;100.00
43267;BME280;67779;54.074;18.770;2023-02-12T18:05:52;102602.56;;;3.55;100.00
43267;BME280;67779;54.074;18.770;2023-02-12T18:12:35;102596.59;;;3.57;100.00
43267;BME280;67779;54.074;18.770;2023-02-12T18:19:30;102599.34;;;3.62;100.00
43267;BME280;67779;54.074;18.770;2023-02-12T18:26:15;102590.78;;;3.66;100.00
43267;BME280;67779;54.074;18.770;2023-02-12T18:33:01;102579.56;;;3.69;100.00
43267;BME280;67779;54.074;18.770;2023-02-12T18:39:46;102585.88;;;3.75;100.00
43267;BME280;67779;54.074;18.770;2023-02-12T18:46:52;102586.97;;;3.82;100.00
43267;BME280;67779;54.074;18.770;2023-02-12T18:54:12;102576.78;;;3.88;100.00
43267;BME280;67779;54.074;18.770;2023-02-12T19:00:54;102583.97;;;3.95;100.00
43267;BME280;67779;54.074;18.770;2023-02-12T19:07:43;102577.09;;;3.99;100.00
43267;BME280;67779;54.074;18.770;2023-02-12T19:14:28;102576.38;;;4.03;100.00
43267;BME280;67779;54.074;18.770;2023-02-12T19:21:12;102566.09;;;4.08;100.00
43267;BME280;67779;54.074;18.770;2023-02-12T19:27:55;102572.31;;;4.11;100.00
43267;BME280;67779;54.074;18.770;2023-02-12T19:34:38;102549.75;;;4.13;100.00
43267;BME280;67779;54.074;18.770;2023-02-12T19:41:25;102551.69;;;4.19;100.00
43267;BME280;67779;54.074;18.770;2023-02-12T19:48:08;102544.81;;;4.22;100.00
43267;BME280;67779;54.074;18.770;2023-02-12T19:54:54;102544.06;;;4.27;100.00
43267;BME280;67779;54.074;18.770;2023-02-12T20:01:36;102542.47;;;4.30;100.00
43267;BME280;67779;54.074;18.770;2023-02-12T20:08:19;102544.22;;;4.31;100.00
43267;BME280;67779;54.074;18.770;2023-02-12T20:15:02;102539.88;;;4.32;100.00
43267;BME280;67779;54.074;18.770;2023-02-12T20:21:48;102540.75;;;4.32;100.00
43267;BME280;67779;54.074;18.770;2023-02-12T20:28:36;102533.75;;;4.31;100.00
43267;BME280;67779;54.074;18.770;2023-02-12T20:35:19;102537.25;;;4.32;100.00
43267;BME280;67779;54.074;18.770;2023-02-12T20:42:01;102528.63;;;4.34;100.00
43267;BME280;67779;54.074;18.770;2023-02-12T20:48:44;102539.16;;;4.36;100.00
43267;BME280;67779;54.074;18.770;2023-02-12T20:55:28;102549.72;;;4.40;100.00
43267;BME280;67779;54.074;18.770;2023-02-12T21:02:11;102548.91;;;4.41;100.00
43267;BME280;67779;54.074;18.770;2023-02-12T21:08:55;102538.53;;;4.44;100.00
43267;BME280;67779;54.074;18.770;2023-02-12T21:15:37;102532.53;;;4.47;100.00
43267;BME280;67779;54.074;18.770;2023-02-12T21:22:20;102541.25;;;4.47;100.00
43267;BME280;67779;54.074;18.770;2023-02-12T21:29:05;102540.47;;;4.50;100.00
43267;BME280;67779;54.074;18.770;2023-02-12T21:35:48;102539.59;;;4.51;100.00
43267;BME280;67779;54.074;18.770;2023-02-12T21:42:32;102544.03;;;4.52;100.00
43267;BME280;67779;54.074;18.770;2023-02-12T21:49:17;102552.75;;;4.53;100.00
43267;BME280;67779;54.074;18.770;2023-02-12T21:56:06;102543.16;;;4.53;100.00
43267;BME280;67779;54.074;18.770;2023-02-12T22:02:48;102543.22;;;4.55;100.00
43267;BME280;67779;54.074;18.770;2023-02-12T22:09:33;102538.00;;;4.55;100.00
43267;BME280;67779;54.074;18.770;2023-02-12T22:16:23;102537.16;;;4.56;100.00
43267;BME280;67779;54.074;18.770;2023-02-12T22:23:06;102531.03;;;4.55;100.00
43267;BME280;67779;54.074;18.770;2023-02-12T22:29:48;102542.31;;;4.54;100.00
43267;BME280;67779;54.074;18.770;2023-02-12T22:36:34;102530.97;;;4.54;100.00
43267;BME280;67779;54.074;18.770;2023-02-12T22:43:17;102529.22;;;4.53;100.00
43267;BME280;67779;54.074;18.770;2023-02-12T22:50:02;102531.78;;;4.51;100.00
43267;BME280;67779;54.074;18.770;2023-02-12T22:56:49;102536.13;;;4.51;100.00
43267;BME280;67779;54.074;18.770;2023-02-12T23:03:31;102534.34;;;4.50;100.00
43267;BME280;67779;54.074;18.770;2023-02-12T23:10:17;102540.47;;;4.50;100.00
43267;BME280;67779;54.074;18.770;2023-02-12T23:16:59;102539.59;;;4.51;100.00
43267;BME280;67779;54.074;18.770;2023-02-12T23:23:42;102523.06;;;4.51;100.00
43267;BME280;67779;54.074;18.770;2023-02-12T23:30:24;102518.59;;;4.48;100.00
43267;BME280;67779;54.074;18.770;2023-02-12T23:37:07;102521.03;;;4.42;100.00
43267;BME280;67779;54.074;18.770;2023-02-12T23:43:49;102516.50;;;4.36;100.00
43267;BME280;67779;54.074;18.770;2023-02-12T23:50:32;102516.22;;;4.27;100.00
43267;BME280;67779;54.074;18.770;2023-02-12T23:57:17;102496.81;;;4.19;100.00
